Owego, Iowa
Current Conditions -  °F | °C
As of 1:52 AM on Thursday 27 Nov 2014 (Local Time) from KSUX Reporting Station
Scattered Clouds Scattered Clouds  
Wind Chill:   Ceiling: Unl
Heat Index: 15°   Visibility: 10mi
Dew Point:   Wind: 9mph
Humidity: 77%   Direction: 320°NW
Pressure: 30.5"   Gusts: NA
Location:  42.3446°N, 96.2663°W
Report Text: KSUX 270752Z 32008KT 10SM SCT017 M09/M13 A3050 RMK AO2 SLP345 T10941128
Loading
Personal Weather Stations






























Interactive Weather Map New forecast layout! Learn more

10-Day Weather Forecast

Advertisements
Track Severe Weather on mobile